This is the latest recevied weather packets stored in our database for station/object K4VEB. If no packets are shown the sender has not sent any weather packets the latest 10 day(s).
| Time | Temp. | Humidity | Pressure | Rain* | Wind** | Luminosity | Snow |
|---|---|---|---|---|---|---|---|
| 1777489417 | 31.67° C | 45% | 1013.8 hPa | 0 mm | - | 849 W/m² | - |
| 1777489114 | 32.22° C | 45% | 1013.7 hPa | 0 mm | - | 823 W/m² | - |
| 1777488811 | 32.22° C | 45% | 1014.1 hPa | 0 mm | - | 835 W/m² | - |
| 1777488509 | 32.78° C | 45% | 1014.1 hPa | 0 mm | - | 852 W/m² | - |
| 1777488206 | 31.67° C | 47% | 1014.1 hPa | 0 mm | - | 842 W/m² | - |
| 1777487904 | 32.22° C | 45% | 1014.3 hPa | 0 mm | - | 825 W/m² | - |
| 1777487602 | 31.67° C | 48% | 1014.4 hPa | 0 mm | - | 845 W/m² | - |
| 1777487299 | 31.67° C | 48% | 1014.5 hPa | 0 mm | - | 830 W/m² | - |
| 1777486996 | 31.11° C | 48% | 1014.6 hPa | 0 mm | - | 829 W/m² | - |
| 1777486692 | 31.11° C | 47% | 1014.7 hPa | 0 mm | - | 841 W/m² | - |
| 1777486390 | 31.11° C | 48% | 1014.9 hPa | 0 mm | - | 832 W/m² | - |
| 1777486087 | 31.11° C | 49% | 1014.9 hPa | 0 mm | - | 819 W/m² | - |
| 1777485784 | 31.11° C | 49% | 1015.1 hPa | 0 mm | - | 868 W/m² | - |
| 1777485479 | 30.56° C | 49% | 1015.2 hPa | 0 mm | - | 868 W/m² | - |
| 1777485175 | 30° C | 50% | 1015.2 hPa | 0 mm | - | 863 W/m² | - |
| 1777484872 | 30.56° C | 51% | 1015.5 hPa | 0 mm | - | 882 W/m² | - |
| 1777484569 | 29.44° C | 55% | 1015.4 hPa | 0 mm | - | 869 W/m² | - |
| 1777484266 | 29.44° C | 55% | 1015.4 hPa | 0 mm | - | 869 W/m² | - |
| 1777483962 | 30° C | 53% | 1015.5 hPa | 0 mm | - | 487 W/m² | - |
| 1777483658 | 30° C | 54% | 1015.5 hPa | 0 mm | - | 402 W/m² | - |
| 1777482407 | 30° C | 51% | 1015.9 hPa | 0 mm | - | 630 W/m² | - |
| 1777482104 | 30° C | 51% | 1015.9 hPa | 0 mm | - | 630 W/m² | - |
| 1777481803 | 30° C | 51% | 1016 hPa | 0 mm | - | 820 W/m² | - |
| 1777481499 | 30° C | 52% | 1016.1 hPa | 0 mm | - | 423 W/m² | - |
| 1777481195 | 30.56° C | 49% | 1016.3 hPa | 0 mm | - | 979 W/m² | - |
* Rain latest hour (hover to see other rain measurements)
** Current wind speed in m/s (hover to see current wind gust speed)